Аэропорт
Суварнабхуми (VTBS)

 VTBS / BKK

Thailand
TH-10
Бангкок
 13.68110, 100.74700  / 5 ft

 VTBS 182200Z 21006KT 9000 -RA FEW020 BKN100 26/25 Q1000 NOSIG
 TAF VTBS 181700Z 1818/1924 24008KT 9000 FEW020 BKN100 TEMPO 1818/1824 22010KT 5000 TSRA FEW018CB SCT030 BKN100 BECMG 1900/1902 18010KT TEMPO 1906/1912 22012KT 4000 TSRA FEW018CB SCT030 BKN100

2020 © VATRUS division (Privacy Policy)